createdAt,value
2023-03-29T00:10:56.359Z,400.00
2023-03-29T00:18:56.356Z,473.00
2023-03-29T00:26:56.334Z,499.00
2023-03-29T00:34:56.370Z,503.00
2023-03-29T00:42:56.370Z,502.00
2023-03-29T00:50:56.431Z,507.00
2023-03-29T01:06:56.643Z,507.00
2023-03-29T01:14:56.460Z,503.00
2023-03-29T01:22:56.509Z,509.00
2023-03-29T01:30:56.548Z,502.00
2023-03-29T01:38:56.587Z,501.00
2023-03-29T01:46:56.585Z,511.00
2023-03-29T02:02:56.811Z,502.00
2023-03-29T02:10:56.707Z,509.00
2023-03-29T02:18:56.665Z,506.00
2023-03-29T02:26:56.727Z,507.00
2023-03-29T02:34:56.704Z,513.00
2023-03-29T02:42:56.815Z,509.00
2023-03-29T02:50:56.820Z,509.00
2023-03-29T02:54:57.843Z,502.00
2023-03-29T03:02:57.796Z,513.00
2023-03-29T03:10:56.926Z,512.00
2023-03-29T03:18:56.976Z,511.00
2023-03-29T03:26:56.983Z,509.00
2023-03-29T03:30:58.026Z,513.00
2023-03-29T03:38:57.070Z,513.00
2023-03-29T03:46:57.126Z,516.00
2023-03-29T03:54:57.096Z,518.00
2023-03-29T04:02:57.267Z,521.00
2023-03-29T04:06:58.144Z,521.00
2023-03-29T04:10:58.181Z,524.00
2023-03-29T04:18:57.256Z,524.00
2023-03-29T04:26:57.249Z,535.00
2023-03-29T04:34:57.313Z,537.00
2023-03-29T04:42:57.327Z,540.00
2023-03-29T04:50:57.406Z,538.00
2023-03-29T04:58:57.426Z,536.00
2023-03-29T05:06:57.582Z,538.00
2023-03-29T05:14:57.521Z,537.00
2023-03-29T05:18:58.557Z,541.00
2023-03-29T05:34:58.062Z,534.00
2023-03-29T05:42:58.078Z,568.00
2023-03-29T05:46:59.065Z,583.00
2023-03-29T05:54:57.793Z,637.00
2023-03-29T05:58:59.085Z,779.00
2023-03-29T06:06:57.579Z,880.00
2023-03-29T06:14:57.582Z,1074.00
2023-03-29T06:18:58.575Z,1158.00
2023-03-29T06:22:58.607Z,1216.00
2023-03-29T06:26:58.607Z,1289.00
2023-03-29T06:30:58.615Z,1250.00
2023-03-29T06:34:58.127Z,1247.00
2023-03-29T06:38:58.089Z,1324.00
2023-03-29T06:42:58.194Z,1356.00
2023-03-29T06:46:58.094Z,1415.00
2023-03-29T06:50:58.095Z,1429.00
2023-03-29T06:54:58.095Z,1424.00
2023-03-29T06:58:58.130Z,1426.00
2023-03-29T07:02:58.167Z,1404.00
2023-03-29T07:06:58.094Z,1409.00
2023-03-29T07:10:58.109Z,1396.00
2023-03-29T07:14:57.677Z,1380.00
2023-03-29T07:18:57.619Z,1364.00
2023-03-29T07:22:57.601Z,1351.00
2023-03-29T07:27:04.131Z,1323.00
2023-03-29T07:30:57.669Z,1330.00
2023-03-29T07:34:57.619Z,1313.00
2023-03-29T07:38:57.187Z,1295.00
2023-03-29T07:42:57.221Z,1312.00
2023-03-29T07:46:57.163Z,1393.00
2023-03-29T07:50:57.139Z,1435.00
2023-03-29T07:54:56.625Z,1428.00
2023-03-29T07:58:56.611Z,1422.00
2023-03-29T08:02:56.740Z,1437.00
2023-03-29T08:06:56.620Z,1403.00
2023-03-29T08:10:56.613Z,1401.00
2023-03-29T08:14:56.620Z,1371.00
2023-03-29T08:18:56.152Z,1352.00
2023-03-29T08:22:56.124Z,1330.00
2023-03-29T08:26:55.769Z,1304.00
2023-03-29T08:30:56.152Z,1273.00
2023-03-29T08:34:55.600Z,1278.00
2023-03-29T08:38:55.641Z,1242.00
2023-03-29T08:42:55.632Z,1228.00
2023-03-29T08:46:55.716Z,1215.00
2023-03-29T08:50:55.433Z,1218.00
2023-03-29T08:54:55.631Z,1195.00
2023-03-29T08:58:55.638Z,1162.00
2023-03-29T09:02:55.712Z,1140.00
2023-03-29T09:06:55.695Z,1130.00
2023-03-29T09:10:55.453Z,1102.00
2023-03-29T09:14:55.637Z,1115.00
2023-03-29T09:18:55.638Z,1080.00
2023-03-29T09:22:55.544Z,1047.00
2023-03-29T09:26:55.650Z,741.00
2023-03-29T09:30:56.652Z,502.00
2023-03-29T09:34:56.161Z,513.00
2023-03-29T09:38:55.185Z,736.00
2023-03-29T09:42:56.216Z,1062.00
2023-03-29T09:46:56.654Z,1303.00
2023-03-29T09:50:56.653Z,1532.00
2023-03-29T09:54:56.677Z,1729.00
2023-03-29T09:58:56.652Z,1857.00
2023-03-29T10:02:56.505Z,2002.00
2023-03-29T10:06:56.688Z,2127.00
2023-03-29T10:14:55.160Z,2319.00
2023-03-29T10:18:56.002Z,2389.00
2023-03-29T10:22:56.184Z,2448.00
2023-03-29T10:30:54.668Z,2558.00
2023-03-29T10:34:55.677Z,2613.00
2023-03-29T10:38:55.411Z,2650.00
2023-03-29T10:42:55.709Z,2689.00
2023-03-29T10:46:55.170Z,2714.00
2023-03-29T10:50:55.171Z,2702.00
2023-03-29T10:54:55.177Z,2674.00
2023-03-29T10:58:55.209Z,2619.00
2023-03-29T11:02:55.267Z,2650.00
2023-03-29T11:06:55.179Z,2658.00
2023-03-29T11:10:55.679Z,2671.00
2023-03-29T11:14:55.135Z,2615.00
2023-03-29T11:18:55.187Z,2581.00
2023-03-29T11:22:55.183Z,2557.00
2023-03-29T11:26:55.189Z,2538.00
2023-03-29T11:30:54.661Z,2531.00
2023-03-29T11:34:54.688Z,2489.00
2023-03-29T11:38:54.688Z,2451.00
2023-03-29T11:42:54.694Z,2433.00
2023-03-29T11:46:54.451Z,2379.00
2023-03-29T11:50:54.702Z,2372.00
2023-03-29T11:54:54.481Z,2475.00
2023-03-29T11:58:54.698Z,2537.00
2023-03-29T12:02:55.326Z,2568.00
2023-03-29T12:06:55.202Z,1621.00
2023-03-29T12:10:55.197Z,1481.00
2023-03-29T12:14:55.236Z,1679.00
2023-03-29T12:18:55.232Z,1823.00
2023-03-29T12:22:55.205Z,1924.00
2023-03-29T12:26:55.309Z,2030.00
2023-03-29T12:30:55.857Z,2128.00
2023-03-29T12:34:55.774Z,2221.00
2023-03-29T12:38:55.714Z,2297.00
2023-03-29T12:42:55.218Z,2379.00
2023-03-29T12:46:55.031Z,2473.00
2023-03-29T12:50:55.251Z,2530.00
2023-03-29T12:54:55.269Z,2593.00
2023-03-29T12:58:54.722Z,1403.00
2023-03-29T13:02:54.770Z,1276.00
2023-03-29T13:06:54.768Z,1462.00
2023-03-29T13:10:54.687Z,1463.00
2023-03-29T13:14:55.250Z,1602.00
2023-03-29T13:18:54.736Z,1707.00
2023-03-29T13:22:54.753Z,1772.00
2023-03-29T13:26:54.517Z,1861.00
2023-03-29T13:30:54.761Z,1905.00
2023-03-29T13:34:54.381Z,1980.00
2023-03-29T13:38:54.184Z,2042.00
2023-03-29T13:42:54.008Z,2104.00
2023-03-29T13:46:54.307Z,2112.00
2023-03-29T13:50:54.237Z,2129.00
2023-03-29T13:54:54.268Z,2110.00
2023-03-29T13:58:54.248Z,2084.00
2023-03-29T14:02:54.276Z,2029.00
2023-03-29T14:06:54.250Z,2000.00
2023-03-29T14:10:53.835Z,1911.00
2023-03-29T14:14:59.099Z,1886.00
2023-03-29T14:18:53.748Z,1855.00
2023-03-29T14:22:53.773Z,1832.00
2023-03-29T14:26:53.308Z,1817.00
2023-03-29T14:30:53.250Z,1792.00
2023-03-29T14:34:53.251Z,1772.00
2023-03-29T14:38:53.277Z,1758.00
2023-03-29T14:42:53.283Z,1740.00
2023-03-29T14:46:52.873Z,1715.00
2023-03-29T14:50:52.644Z,1707.00
2023-03-29T14:54:52.758Z,1686.00
2023-03-29T14:58:52.439Z,1660.00
2023-03-29T15:02:52.439Z,1648.00
2023-03-29T15:06:52.205Z,1634.00
2023-03-29T15:10:52.095Z,1612.00
2023-03-29T15:14:52.017Z,1598.00
2023-03-29T15:18:51.892Z,1604.00
2023-03-29T15:22:52.272Z,1574.00
2023-03-29T15:26:51.686Z,1569.00
2023-03-29T15:31:04.753Z,1563.00
2023-03-29T15:34:51.469Z,1538.00
2023-03-29T15:38:51.354Z,1527.00
2023-03-29T15:42:51.223Z,1512.00
2023-03-29T15:46:51.223Z,1512.00
2023-03-29T15:50:51.040Z,1495.00
2023-03-29T15:54:51.296Z,1495.00
2023-03-29T15:58:50.878Z,1488.00
2023-03-29T16:02:50.825Z,1472.00
2023-03-29T16:06:50.679Z,1453.00
2023-03-29T16:10:50.603Z,1456.00
2023-03-29T16:14:50.527Z,1431.00
2023-03-29T16:18:50.467Z,1424.00
2023-03-29T16:22:50.365Z,1420.00
2023-03-29T16:26:50.974Z,1397.00
2023-03-29T16:30:50.168Z,1459.00
2023-03-29T16:34:50.095Z,1504.00
2023-03-29T16:38:49.968Z,1618.00
2023-03-29T16:42:49.872Z,1689.00
2023-03-29T16:46:49.764Z,1769.00
2023-03-29T16:50:49.816Z,1827.00
2023-03-29T16:54:49.566Z,1897.00
2023-03-29T16:58:49.569Z,1950.00
2023-03-29T17:02:49.423Z,1997.00
2023-03-29T17:06:49.428Z,2042.00
2023-03-29T17:10:49.501Z,2085.00
2023-03-29T17:14:49.599Z,2104.00
2023-03-29T17:18:49.687Z,2135.00
2023-03-29T17:22:49.781Z,2183.00
2023-03-29T17:26:49.823Z,2200.00
2023-03-29T17:30:49.927Z,2226.00
2023-03-29T17:34:49.991Z,2175.00
2023-03-29T17:38:50.127Z,2160.00
2023-03-29T17:42:50.306Z,2119.00
2023-03-29T17:46:50.154Z,2074.00
2023-03-29T17:50:49.978Z,2044.00
2023-03-29T17:54:49.888Z,1991.00
2023-03-29T17:58:49.745Z,1960.00
2023-03-29T18:02:49.711Z,1941.00
2023-03-29T18:06:49.532Z,1917.00
2023-03-29T18:10:49.425Z,1881.00
2023-03-29T18:14:49.313Z,1868.00
2023-03-29T18:18:49.232Z,1861.00
2023-03-29T18:22:49.207Z,1821.00
2023-03-29T18:26:49.150Z,1805.00
2023-03-29T18:30:49.054Z,1770.00
2023-03-29T18:34:48.966Z,1760.00
2023-03-29T18:38:48.895Z,1730.00
2023-03-29T18:42:48.863Z,1721.00
2023-03-29T18:46:48.793Z,1683.00
2023-03-29T18:50:48.699Z,1669.00
2023-03-29T18:54:48.628Z,1647.00
2023-03-29T18:58:48.579Z,1629.00
2023-03-29T19:02:48.629Z,1604.00
2023-03-29T19:06:48.397Z,1580.00
2023-03-29T19:10:48.337Z,1560.00
2023-03-29T19:14:48.306Z,1547.00
2023-03-29T19:18:48.222Z,1536.00
2023-03-29T19:22:48.186Z,1500.00
2023-03-29T19:26:48.131Z,1480.00
2023-03-29T19:30:48.145Z,1447.00
2023-03-29T19:34:48.050Z,1434.00
2023-03-29T19:38:48.020Z,1391.00
2023-03-29T19:42:47.986Z,1395.00
2023-03-29T19:46:48.074Z,1377.00
2023-03-29T19:50:47.969Z,1349.00
2023-03-29T19:54:47.949Z,1331.00
2023-03-29T19:58:47.938Z,1320.00
2023-03-29T20:02:47.996Z,1290.00
2023-03-29T20:06:47.887Z,1294.00
2023-03-29T20:10:47.869Z,1263.00
2023-03-29T20:14:47.860Z,1251.00
2023-03-29T20:18:47.913Z,1243.00
2023-03-29T20:22:47.854Z,1211.00
2023-03-29T20:26:47.866Z,1196.00
2023-03-29T20:30:47.887Z,1172.00
2023-03-29T20:34:47.915Z,1153.00
2023-03-29T20:38:47.891Z,1133.00
2023-03-29T20:42:47.920Z,1126.00
2023-03-29T20:46:47.970Z,1108.00
2023-03-29T20:50:47.965Z,1086.00
2023-03-29T20:54:47.917Z,1077.00
2023-03-29T20:58:47.909Z,1059.00
2023-03-29T21:02:47.997Z,1065.00
2023-03-29T21:06:47.940Z,1039.00
2023-03-29T21:10:47.875Z,1021.00
2023-03-29T21:14:47.864Z,1023.00
2023-03-29T21:18:47.890Z,1011.00
2023-03-29T21:22:47.902Z,985.00
2023-03-29T21:26:47.872Z,984.00
2023-03-29T21:30:47.897Z,985.00
2023-03-29T21:34:47.872Z,976.00
2023-03-29T21:38:47.893Z,977.00
2023-03-29T21:42:47.869Z,966.00
2023-03-29T21:46:47.920Z,947.00
2023-03-29T21:50:47.871Z,925.00
2023-03-29T21:54:47.905Z,926.00
2023-03-29T21:58:47.881Z,928.00
2023-03-29T22:02:48.028Z,907.00
2023-03-29T22:06:47.870Z,898.00
2023-03-29T22:10:47.897Z,888.00
2023-03-29T22:14:47.905Z,876.00
2023-03-29T22:18:47.919Z,869.00
2023-03-29T22:22:47.934Z,863.00
2023-03-29T22:26:48.007Z,863.00
2023-03-29T22:30:47.979Z,839.00
2023-03-29T22:34:47.993Z,836.00
2023-03-29T22:38:48.020Z,823.00
2023-03-29T22:42:48.069Z,820.00
2023-03-29T22:46:48.100Z,812.00
2023-03-29T22:50:48.149Z,804.00
2023-03-29T22:54:48.134Z,795.00
2023-03-29T22:58:48.178Z,791.00
2023-03-29T23:02:48.234Z,804.00
